Time;durP1;ratioP1;P1;durP2;ratioP2;P2;SDS_P1;SDS_P2;PMS_P1;PMS_P2;Temp;Humidity;BMP_temperature;BMP_pressure;BME280_temperature;BME280_humidity;BME280_pressure;Samples;Min_cycle;Max_cycle;Signal;HPM_P1;HPM_P2
2023/10/26 00:01:43;;;;;;;26.15;23.55;;;;;;;9.25;100.00;99442.81;5008738;28;20026;-61
2023/10/26 00:04:09;;;;;;;25.48;22.83;;;;;;;9.25;100.00;99440.22;5013860;28;20025;-61
2023/10/26 00:06:34;;;;;;;24.25;21.77;;;;;;;9.24;100.00;99441.06;5009158;28;20483;-61
2023/10/26 00:08:59;;;;;;;24.67;21.02;;;;;;;9.23;100.00;99447.06;5015105;28;20049;-61
2023/10/26 00:11:24;;;;;;;24.15;21.42;;;;;;;9.22;100.00;99453.09;5011296;28;20033;-61
2023/10/26 00:13:50;;;;;;;24.55;21.85;;;;;;;9.21;100.00;99461.72;5008294;28;20025;-61
2023/10/26 00:16:15;;;;;;;22.92;20.45;;;;;;;9.21;100.00;99466.88;5006350;28;20029;-61
2023/10/26 00:18:40;;;;;;;23.98;21.60;;;;;;;9.19;100.00;99466.84;5014336;28;20513;-61
2023/10/26 00:21:06;;;;;;;23.40;20.90;;;;;;;9.20;100.00;99470.31;5008928;28;20442;-62
2023/10/26 00:23:31;;;;;;;24.88;21.77;;;;;;;9.18;100.00;99469.41;5014624;28;20026;-61
2023/10/26 00:25:57;;;;;;;23.17;20.77;;;;;;;9.19;100.00;99473.75;5014579;28;20041;-61
2023/10/26 00:28:22;;;;;;;23.25;20.85;;;;;;;9.18;100.00;99469.41;5014190;28;20058;-62
2023/10/26 00:30:47;;;;;;;24.15;21.23;;;;;;;9.18;100.00;99467.69;5013750;28;20038;-62
2023/10/26 00:33:13;;;;;;;23.92;21.42;;;;;;;9.17;100.00;99478.00;5001912;28;20570;-62
2023/10/26 00:35:38;;;;;;;23.90;21.52;;;;;;;9.17;100.00;99480.59;5012867;28;20034;-63
2023/10/26 00:38:04;;;;;;;24.65;21.05;;;;;;;9.15;100.00;99479.69;5003250;28;20025;-62
2023/10/26 00:40:29;;;;;;;22.20;19.95;;;;;;;9.13;100.00;99485.72;5022217;28;20037;-61
2023/10/26 00:43:06;;;;;;;25.02;22.05;;;;;;;9.13;100.00;99484.84;5001703;28;20089;-61
2023/10/26 00:45:35;;;;;;;23.40;20.70;;;;;;;9.10;100.00;99490.81;5002838;28;20029;-61
2023/10/26 00:48:01;;;;;;;22.92;20.52;;;;;;;9.10;100.00;99490.81;5014934;28;20040;-62
2023/10/26 00:50:27;;;;;;;23.52;20.00;;;;;;;9.09;100.00;99498.56;5022902;28;20036;-61
2023/10/26 00:52:53;;;;;;;21.75;19.65;;;;;;;9.08;100.00;99496.81;5008578;28;20033;-61
2023/10/26 00:55:19;;;;;;;24.35;19.38;;;;;;;9.07;100.00;99500.25;5019294;28;20029;-61
2023/10/26 00:57:45;;;;;;;21.10;18.90;;;;;;;9.04;100.00;99506.25;5017797;28;20049;-61
2023/10/26 01:00:11;;;;;;;18.73;16.90;;;;;;;9.02;100.00;99505.34;5016670;28;20029;-61
2023/10/26 01:02:37;;;;;;;19.15;17.15;;;;;;;8.99;100.00;99503.56;5010775;28;20030;-62
2023/10/26 01:05:03;;;;;;;18.30;16.50;;;;;;;8.98;100.00;99508.72;4995924;28;20053;-62
2023/10/26 01:07:29;;;;;;;19.60;17.58;;;;;;;8.96;100.00;99502.66;5007600;28;20323;-61
2023/10/26 01:09:55;;;;;;;18.83;16.77;;;;;;;8.96;100.00;99507.84;5006973;28;20472;-62
2023/10/26 01:12:21;;;;;;;18.83;16.88;;;;;;;8.93;100.00;99512.94;5007516;28;20022;-61
2023/10/26 01:14:46;;;;;;;19.02;17.00;;;;;;;8.89;100.00;99518.06;5007833;28;20501;-61
2023/10/26 01:17:12;;;;;;;19.35;17.10;;;;;;;8.87;100.00;99517.16;5010745;28;20041;-61
2023/10/26 01:19:39;;;;;;;19.42;17.33;;;;;;;8.87;100.00;99511.97;5013762;28;20061;-61
2023/10/26 01:22:04;;;;;;;20.25;17.77;;;;;;;8.86;100.00;99512.84;5016586;28;20040;-61
2023/10/26 01:24:29;;;;;;;20.42;18.13;;;;;;;8.85;100.00;99516.25;5015876;28;20392;-61
2023/10/26 01:26:55;;;;;;;19.13;17.23;;;;;;;8.83;100.00;99517.94;5015465;28;20298;-62
2023/10/26 01:29:20;;;;;;;22.25;19.95;;;;;;;8.83;100.00;99505.00;5006609;28;20029;-62
2023/10/26 01:31:45;;;;;;;22.40;20.05;;;;;;;8.83;100.00;99517.94;5006269;28;20030;-61
2023/10/26 01:34:10;;;;;;;22.98;19.25;;;;;;;8.83;100.00;99511.91;5014776;28;20029;-61
2023/10/26 01:36:36;;;;;;;20.70;18.75;;;;;;;8.77;100.00;99510.09;5022568;28;20030;-61
2023/10/26 01:39:02;;;;;;;20.38;18.27;;;;;;;8.74;100.00;99512.63;5016334;28;20042;-62
2023/10/26 01:41:31;;;;;;;20.83;18.67;;;;;;;8.72;100.00;99516.88;5010510;28;20064;-61
2023/10/26 01:43:56;;;;;;;21.63;19.33;;;;;;;8.70;100.00;99513.41;5009868;28;20125;-61
2023/10/26 01:46:22;;;;;;;21.98;19.65;;;;;;;8.65;100.00;99503.84;5018961;28;20038;-62
2023/10/26 01:48:47;;;;;;;23.92;19.77;;;;;;;8.64;100.00;99511.56;5015802;28;20073;-61
2023/10/26 01:51:12;;;;;;;22.40;19.70;;;;;;;8.61;100.00;99519.25;5012962;28;20062;-61
2023/10/26 01:53:37;;;;;;;22.30;19.98;;;;;;;8.58;100.00;99522.63;5015264;28;20033;-60
2023/10/26 01:56:03;;;;;;;22.48;19.63;;;;;;;8.57;100.00;99523.50;5003602;28;20462;-62
2023/10/26 01:58:28;;;;;;;22.55;20.15;;;;;;;8.56;100.00;99523.47;5008446;28;20026;-61
2023/10/26 02:00:53;;;;;;;22.42;18.90;;;;;;;8.52;100.00;99513.06;5010528;28;20462;-61
2023/10/26 02:03:19;;;;;;;21.83;19.33;;;;;;;8.51;100.00;99510.41;5010123;28;20037;-61
2023/10/26 02:05:45;;;;;;;19.73;17.80;;;;;;;8.48;100.00;99505.19;5017099;28;20021;-62
2023/10/26 02:08:10;;;;;;;21.75;18.92;;;;;;;8.44;100.00;99514.59;5023400;28;20029;-61
2023/10/26 02:10:36;;;;;;;20.50;18.40;;;;;;;8.41;100.00;99502.53;5020770;28;20169;-61
2023/10/26 02:13:02;;;;;;;23.30;19.73;;;;;;;8.38;100.00;99510.19;5001675;28;20026;-61
2023/10/26 02:15:27;;;;;;;20.77;17.73;;;;;;;8.33;100.00;99504.06;5009986;28;20034;-63
2023/10/26 02:17:52;;;;;;;19.95;17.67;;;;;;;8.27;100.00;99501.38;5021129;28;20068;-61
2023/10/26 02:20:18;;;;;;;20.23;18.17;;;;;;;8.23;100.00;99502.13;5024298;28;20025;-62
2023/10/26 02:22:43;;;;;;;18.92;16.92;;;;;;;8.16;100.00;99494.28;5012475;28;20030;-61
2023/10/26 02:25:08;;;;;;;21.23;18.95;;;;;;;8.13;100.00;99499.38;5010911;28;20034;-61
2023/10/26 02:27:34;;;;;;;20.42;18.33;;;;;;;8.11;100.00;99500.19;5006163;28;20482;-61
2023/10/26 02:30:00;;;;;;;21.58;19.27;;;;;;;8.09;100.00;99496.69;4991033;28;20380;-61
2023/10/26 02:32:26;;;;;;;21.33;19.02;;;;;;;8.10;100.00;99496.72;5005451;28;20457;-62
2023/10/26 02:34:52;;;;;;;19.92;17.67;;;;;;;8.07;100.00;99499.25;5019374;28;20117;-61
2023/10/26 02:37:20;;;;;;;20.35;18.17;;;;;;;8.03;100.00;99503.47;4997236;28;20129;-61
2023/10/26 02:39:46;;;;;;;21.38;19.08;;;;;;;7.99;100.00;99493.03;5015388;28;20029;-61
2023/10/26 02:42:12;;;;;;;21.90;17.65;;;;;;;7.97;100.00;99497.31;5016164;28;20045;-61
2023/10/26 02:44:37;;;;;;;21.00;18.90;;;;;;;7.95;100.00;99499.00;5028610;28;20091;-61
2023/10/26 02:47:02;;;;;;;22.20;20.00;;;;;;;7.91;100.00;99493.78;5016450;28;20065;-62
2023/10/26 02:49:28;;;;;;;19.15;17.10;;;;;;;7.89;100.00;99490.28;5028259;28;20025;-62
2023/10/26 02:51:53;;;;;;;19.83;17.70;;;;;;;7.86;100.00;99497.94;5009323;28;20497;-61
2023/10/26 02:54:19;;;;;;;19.70;17.67;;;;;;;7.85;100.00;99500.50;4997232;28;20113;-62
2023/10/26 02:56:44;;;;;;;21.13;18.17;;;;;;;7.81;100.00;99497.84;5008045;28;20021;-61
2023/10/26 02:59:10;;;;;;;21.83;18.23;;;;;;;7.79;100.00;99503.81;5015425;28;20033;-61
2023/10/26 03:01:35;;;;;;;20.27;18.10;;;;;;;7.76;100.00;99504.63;5008848;28;20466;-61
2023/10/26 03:04:02;;;;;;;21.60;17.33;;;;;;;7.73;100.00;99503.69;5009998;28;20029;-61
2023/10/26 03:06:27;;;;;;;19.48;16.65;;;;;;;7.71;100.00;99505.34;5009599;28;20079;-60
2023/10/26 03:08:53;;;;;;;18.85;16.85;;;;;;;7.67;100.00;99499.25;5009376;28;20107;-61
2023/10/26 03:11:18;;;;;;;20.08;17.98;;;;;;;7.63;100.00;99497.44;5008482;28;20029;-61
2023/10/26 03:13:43;;;;;;;19.90;15.98;;;;;;;7.58;100.00;99494.75;5009688;28;20485;-61
2023/10/26 03:16:08;;;;;;;21.80;17.05;;;;;;;7.57;100.00;99493.03;5022697;28;20505;-61
2023/10/26 03:18:36;;;;;;;20.02;17.92;;;;;;;7.52;100.00;99495.50;5009355;28;20025;-60
2023/10/26 03:21:01;;;;;;;18.35;16.13;;;;;;;7.51;100.00;99503.19;5002918;28;20030;-61
2023/10/26 03:23:26;;;;;;;19.30;17.20;;;;;;;7.47;100.00;99506.53;5014570;28;20112;-61
2023/10/26 03:25:51;;;;;;;22.50;17.85;;;;;;;7.44;100.00;99502.19;5004420;28;20034;-61
2023/10/26 03:28:17;;;;;;;18.33;16.33;;;;;;;7.40;100.00;99498.66;5013752;28;20401;-61
2023/10/26 03:30:42;;;;;;;20.15;17.60;;;;;;;7.37;100.00;99500.28;5028202;28;20159;-61
2023/10/26 03:33:07;;;;;;;20.05;17.05;;;;;;;7.37;100.00;99497.72;5017038;28;20079;-61
2023/10/26 03:35:35;;;;;;;20.75;17.42;;;;;;;7.32;100.00;99503.63;5024418;28;20040;-60
2023/10/26 03:38:00;;;;;;;18.27;16.30;;;;;;;7.28;100.00;99500.94;5008793;28;20045;-61
2023/10/26 03:40:25;;;;;;;19.20;17.05;;;;;;;7.25;100.00;99491.44;5008501;28;20394;-61
2023/10/26 03:42:51;;;;;;;18.10;16.25;;;;;;;7.20;100.00;99486.19;5014020;28;20088;-61
2023/10/26 03:45:16;;;;;;;18.65;16.65;;;;;;;7.20;100.00;99495.59;5016089;28;20057;-61
2023/10/26 03:47:43;;;;;;;18.58;16.58;;;;;;;7.15;100.00;99485.19;5008045;28;20382;-61
2023/10/26 03:50:08;;;;;;;17.98;16.05;;;;;;;7.12;100.00;99484.25;5008963;28;20029;-60
2023/10/26 03:52:34;;;;;;;18.55;16.55;;;;;;;7.10;100.00;99486.78;5008733;28;20030;-61
2023/10/26 03:55:00;;;;;;;18.58;16.65;;;;;;;7.06;100.00;99484.97;5008874;28;20076;-63
2023/10/26 03:57:25;;;;;;;18.35;15.63;;;;;;;7.05;100.00;99483.22;5012385;28;20531;-61
2023/10/26 03:59:50;;;;;;;18.60;16.20;;;;;;;7.03;100.00;99469.44;5021363;28;20509;-60
2023/10/26 04:02:16;;;;;;;17.45;15.60;;;;;;;7.01;100.00;99463.38;5009168;28;20030;-60
2023/10/26 04:04:42;;;;;;;18.58;16.13;;;;;;;6.99;100.00;99465.03;5008762;28;20026;-61
2023/10/26 04:07:07;;;;;;;18.70;16.67;;;;;;;6.94;100.00;99462.34;5008043;28;20072;-61
2023/10/26 04:09:33;;;;;;;18.08;16.17;;;;;;;6.91;100.00;99470.88;5007510;28;20149;-60
2023/10/26 04:11:58;;;;;;;19.98;17.48;;;;;;;6.88;100.00;99465.66;5008484;28;20034;-61
2023/10/26 04:14:24;;;;;;;20.55;16.67;;;;;;;6.88;100.00;99460.50;5006985;28;20030;-61
2023/10/26 04:16:50;;;;;;;18.55;16.45;;;;;;;6.89;100.00;99461.38;5009712;28;20034;-61
2023/10/26 04:19:15;;;;;;;20.33;17.15;;;;;;;6.91;100.00;99462.25;5006167;28;20026;-61
2023/10/26 04:21:40;;;;;;;22.70;16.77;;;;;;;6.94;100.00;99470.94;5009556;28;20025;-62
2023/10/26 04:24:06;;;;;;;25.10;18.65;;;;;;;6.97;100.00;99465.88;5022986;28;20428;-60
2023/10/26 04:26:31;;;;;;;29.70;21.38;;;;;;;7.04;100.00;99471.16;5006992;28;20030;-61
2023/10/26 04:28:56;;;;;;;29.63;20.77;;;;;;;7.11;100.00;99464.44;5014008;28;20022;-62
2023/10/26 04:31:22;;;;;;;25.67;20.02;;;;;;;7.13;100.00;99471.41;5006995;28;20492;-61
2023/10/26 04:33:48;;;;;;;25.27;18.42;;;;;;;7.14;100.00;99473.13;5012969;28;20525;-60
2023/10/26 04:36:14;;;;;;;27.67;20.35;;;;;;;7.15;100.00;99469.72;5025519;28;20124;-60
2023/10/26 04:38:39;;;;;;;30.58;22.08;;;;;;;7.15;100.00;99471.44;5017128;28;20042;-62
2023/10/26 04:41:05;;;;;;;30.80;21.63;;;;;;;7.15;100.00;99464.59;5006659;28;20038;-61
2023/10/26 04:43:31;;;;;;;27.30;20.60;;;;;;;7.14;100.00;99457.66;5007800;28;20029;-62
2023/10/26 04:45:56;;;;;;;25.17;19.00;;;;;;;7.15;100.00;99459.44;5007497;28;20088;-62
2023/10/26 04:48:21;;;;;;;28.10;18.55;;;;;;;7.12;100.00;99474.81;4987753;28;20026;-60
2023/10/26 04:50:47;;;;;;;30.58;19.38;;;;;;;7.08;100.00;99468.72;5008914;28;20437;-62
2023/10/26 04:53:12;;;;;;;32.78;20.70;;;;;;;7.04;100.00;99460.88;5002300;28;20033;-62
2023/10/26 04:55:38;;;;;;;24.38;18.10;;;;;;;7.02;100.00;99468.56;5009318;28;20030;-61
2023/10/26 04:58:03;;;;;;;25.10;19.83;;;;;;;6.99;100.00;99462.47;5003326;28;20026;-62
2023/10/26 05:00:29;;;;;;;22.00;18.33;;;;;;;6.94;100.00;99455.47;5022743;28;20026;-61
2023/10/26 05:02:55;;;;;;;23.83;18.83;;;;;;;6.92;100.00;99461.44;5001703;28;20097;-60
2023/10/26 05:05:20;;;;;;;24.88;18.42;;;;;;;6.87;100.00;99458.75;5007813;28;20105;-61
2023/10/26 05:07:46;;;;;;;26.48;19.30;;;;;;;6.82;100.00;99456.06;5005774;28;20027;-60
2023/10/26 05:10:12;;;;;;;25.95;18.75;;;;;;;6.79;100.00;99462.84;5003461;28;20083;-61
2023/10/26 05:12:38;;;;;;;21.02;18.48;;;;;;;6.79;100.00;99461.13;5018936;28;20490;-61
2023/10/26 05:15:04;;;;;;;26.88;19.95;;;;;;;6.80;100.00;99452.56;4991852;28;20026;-61
2023/10/26 05:17:30;;;;;;;43.28;19.25;;;;;;;6.78;100.00;99461.09;5008762;28;20367;-61
2023/10/26 05:19:55;;;;;;;28.60;17.52;;;;;;;6.72;100.00;99447.25;5010021;28;20037;-61
2023/10/26 05:22:20;;;;;;;24.13;17.20;;;;;;;6.74;100.00;99442.13;5007075;28;20105;-61
2023/10/26 05:24:46;;;;;;;28.38;18.45;;;;;;;6.71;100.00;99445.47;5006938;28;20061;-62
2023/10/26 05:27:11;;;;;;;40.47;18.83;;;;;;;6.66;100.00;99452.22;5007276;28;20142;-61
2023/10/26 05:29:36;;;;;;;28.88;18.30;;;;;;;6.63;100.00;99452.16;5000992;28;20036;-60
2023/10/26 05:32:02;;;;;;;24.48;17.13;;;;;;;6.65;100.00;99449.59;5013408;28;20026;-61
2023/10/26 05:34:28;;;;;;;19.75;17.65;;;;;;;6.63;100.00;99452.16;5006042;28;20024;-61
2023/10/26 05:36:53;;;;;;;21.33;17.48;;;;;;;6.62;100.00;99452.97;5014104;28;20032;-61
2023/10/26 05:39:19;;;;;;;24.95;17.08;;;;;;;6.61;100.00;99446.09;5010546;28;20026;-62
2023/10/26 05:41:44;;;;;;;21.95;18.52;;;;;;;6.60;100.00;99439.22;5007124;28;20185;-62
2023/10/26 05:44:10;;;;;;;25.95;18.83;;;;;;;6.60;100.00;99454.66;5017724;28;20109;-61
2023/10/26 05:46:36;;;;;;;25.60;18.20;;;;;;;6.62;100.00;99450.38;5025028;28;20064;-61
2023/10/26 05:49:01;;;;;;;20.92;17.35;;;;;;;6.65;100.00;99452.19;5009046;28;20033;-61
2023/10/26 05:51:26;;;;;;;22.80;17.73;;;;;;;6.68;100.00;99447.09;5015517;28;20064;-61
2023/10/26 05:53:52;;;;;;;24.98;19.30;;;;;;;6.70;100.00;99453.16;5021241;28;20022;-60
2023/10/26 05:56:17;;;;;;;24.52;18.40;;;;;;;6.73;100.00;99448.97;5016081;28;20049;-61
2023/10/26 05:58:43;;;;;;;25.73;18.60;;;;;;;6.72;100.00;99457.53;5003660;28;20030;-61
2023/10/26 06:01:09;;;;;;;23.60;18.70;;;;;;;6.71;100.00;99440.34;5007131;28;20022;-61
2023/10/26 06:03:34;;;;;;;25.63;18.83;;;;;;;6.72;100.00;99434.38;5006928;28;20037;-61
2023/10/26 06:06:00;;;;;;;26.88;20.25;;;;;;;6.74;100.00;99431.84;5009466;28;20042;-61
2023/10/26 06:08:26;;;;;;;24.58;19.70;;;;;;;6.76;100.00;99425.03;5010969;28;20057;-60
2023/10/26 06:10:52;;;;;;;24.83;19.23;;;;;;;6.78;100.00;99427.63;5009647;28;20414;-61
2023/10/26 06:13:17;;;;;;;25.45;19.48;;;;;;;6.80;100.00;99425.97;5008187;28;20507;-61
2023/10/26 06:15:42;;;;;;;26.15;20.30;;;;;;;6.82;100.00;99427.72;5006935;28;20065;-61
2023/10/26 06:18:08;;;;;;;28.08;20.38;;;;;;;6.84;100.00;99435.50;5008951;28;20394;-61
2023/10/26 06:20:33;;;;;;;33.72;20.38;;;;;;;6.86;100.00;99436.41;5009908;28;20099;-61
2023/10/26 06:22:58;;;;;;;24.45;19.38;;;;;;;6.87;100.00;99443.31;5017935;28;20199;-62
2023/10/26 06:25:25;;;;;;;29.20;19.50;;;;;;;6.87;100.00;99440.75;5014198;28;20065;-61
2023/10/26 06:27:51;;;;;;;31.23;21.17;;;;;;;6.89;100.00;99440.78;5011109;28;20127;-61
2023/10/26 06:30:17;;;;;;;45.97;19.48;;;;;;;6.89;100.00;99431.31;5016092;28;20026;-60
2023/10/26 06:32:43;;;;;;;32.03;20.70;;;;;;;6.89;100.00;99423.59;4998755;28;20053;-61
2023/10/26 06:35:10;;;;;;;28.73;18.38;;;;;;;6.88;100.00;99429.59;5003943;28;20064;-62
2023/10/26 06:37:37;;;;;;;27.50;17.70;;;;;;;6.89;100.00;99435.63;5022814;28;20091;-61
2023/10/26 06:40:04;;;;;;;35.95;18.88;;;;;;;6.85;100.00;99442.41;4997643;28;20225;-61
2023/10/26 06:42:29;;;;;;;43.63;19.17;;;;;;;6.83;100.00;99450.09;5012901;28;20045;-61
2023/10/26 06:44:55;;;;;;;44.53;20.05;;;;;;;6.80;100.00;99438.84;5011204;28;20037;-62
2023/10/26 06:47:21;;;;;;;31.52;19.10;;;;;;;6.83;100.00;99437.22;5008014;28;20433;-62
2023/10/26 06:49:46;;;;;;;76.95;22.05;;;;;;;6.81;100.00;99444.03;5011411;28;20065;-61
2023/10/26 06:52:11;;;;;;;41.08;19.40;;;;;;;6.76;100.00;99453.34;5010249;28;20091;-61
2023/10/26 06:54:36;;;;;;;31.17;18.85;;;;;;;6.76;100.00;99439.59;5009728;28;20038;-62
2023/10/26 06:57:02;;;;;;;28.85;18.45;;;;;;;6.79;100.00;99439.66;5014902;28;20030;-61
2023/10/26 06:59:27;;;;;;;28.80;19.33;;;;;;;6.79;100.00;99439.66;5008599;28;20026;-62
2023/10/26 07:01:53;;;;;;;52.35;19.08;;;;;;;6.79;100.00;99437.09;5006488;28;20473;-62
2023/10/26 07:04:18;;;;;;;26.88;18.50;;;;;;;6.76;100.00;99440.47;5027610;28;20088;-61
2023/10/26 07:06:44;;;;;;;31.02;18.65;;;;;;;6.79;100.00;99449.97;5014802;28;20550;-62
2023/10/26 07:09:09;;;;;;;27.75;18.08;;;;;;;6.81;100.00;99450.88;5014362;28;20030;-61
2023/10/26 07:11:34;;;;;;;27.50;17.50;;;;;;;6.84;100.00;99448.38;5016294;28;20048;-61
2023/10/26 07:14:00;;;;;;;30.30;19.00;;;;;;;6.87;100.00;99432.13;5003036;28;20034;-62
2023/10/26 07:16:25;;;;;;;32.78;17.70;;;;;;;6.88;100.00;99434.75;5012312;28;20018;-62
2023/10/26 07:18:51;;;;;;;26.83;19.52;;;;;;;6.87;100.00;99425.28;5006030;28;20516;-61
2023/10/26 07:21:17;;;;;;;26.63;18.95;;;;;;;6.90;100.00;99432.19;5013030;28;20030;-62
2023/10/26 07:23:42;;;;;;;26.75;19.20;;;;;;;6.93;100.00;99427.13;5018679;28;20033;-61
2023/10/26 07:26:07;;;;;;;28.13;18.80;;;;;;;6.96;100.00;99432.38;4993696;28;20061;-62
2023/10/26 07:28:33;;;;;;;25.42;19.02;;;;;;;6.98;100.00;99430.66;5006151;28;20033;-62
2023/10/26 07:30:58;;;;;;;25.33;17.00;;;;;;;6.98;100.00;99430.66;5025244;28;20041;-62
2023/10/26 07:33:23;;;;;;;27.33;17.52;;;;;;;6.99;100.00;99426.41;5017820;28;20094;-61
2023/10/26 07:35:56;;;;;;;26.50;18.08;;;;;;;6.93;100.00;99421.97;5005805;28;20219;-62
2023/10/26 07:38:24;;;;;;;35.40;17.73;;;;;;;6.90;100.00;99430.50;4998432;28;20087;-61
2023/10/26 07:40:51;;;;;;;31.63;18.48;;;;;;;6.90;100.00;99433.09;5002380;28;20030;-62
2023/10/26 07:43:16;;;;;;;31.17;18.65;;;;;;;6.92;100.00;99433.13;5006877;28;20620;-62
2023/10/26 07:45:41;;;;;;;41.10;17.20;;;;;;;6.90;100.00;99437.34;5004475;28;20061;-62
2023/10/26 07:48:06;;;;;;;49.72;17.25;;;;;;;6.87;100.00;99429.56;5015345;28;20363;-62
2023/10/26 07:50:32;;;;;;;24.88;17.70;;;;;;;6.86;100.00;99436.41;5010180;28;20052;-62
2023/10/26 07:52:57;;;;;;;29.92;17.10;;;;;;;6.91;100.00;99439.97;5003232;28;20072;-62
2023/10/26 07:55:22;;;;;;;26.88;18.52;;;;;;;6.95;100.00;99441.78;5002821;28;20034;-62
2023/10/26 07:57:48;;;;;;;25.92;17.00;;;;;;;7.00;100.00;99449.63;5009833;28;20140;-62
2023/10/26 08:00:13;;;;;;;34.22;17.48;;;;;;;6.96;100.00;99453.81;5009656;28;20433;-62
2023/10/26 08:02:39;;;;;;;64.82;18.98;;;;;;;6.96;100.00;99451.25;5005921;28;20030;-62
2023/10/26 08:05:05;;;;;;;27.30;17.50;;;;;;;7.02;100.00;99449.66;5001050;28;20464;-61
2023/10/26 08:07:30;;;;;;;28.50;17.60;;;;;;;7.08;100.00;99457.53;5007672;28;20428;-62
2023/10/26 08:09:56;;;;;;;24.77;16.75;;;;;;;7.09;100.00;99460.16;5000570;28;20428;-61
2023/10/26 08:12:22;;;;;;;26.45;19.05;;;;;;;7.09;100.00;99464.41;4999698;28;20117;-62
2023/10/26 08:14:47;;;;;;;23.75;16.90;;;;;;;7.16;100.00;99466.31;5005684;28;20325;-61
2023/10/26 08:17:12;;;;;;;25.45;18.23;;;;;;;7.19;100.00;99468.09;4995815;28;20108;-62
2023/10/26 08:19:38;;;;;;;31.48;16.58;;;;;;;7.20;100.00;99468.13;4999628;28;20026;-62
2023/10/26 08:22:04;;;;;;;22.75;16.45;;;;;;;7.17;100.00;99465.50;5000753;28;20082;-61
2023/10/26 08:24:31;;;;;;;23.13;16.42;;;;;;;7.18;100.00;99469.81;5016644;28;20518;-62
2023/10/26 08:26:57;;;;;;;23.20;16.65;;;;;;;7.22;100.00;99468.16;5014300;28;20056;-62
2023/10/26 08:29:23;;;;;;;23.20;15.95;;;;;;;7.18;100.00;99472.38;5001925;28;20494;-61
2023/10/26 08:31:49;;;;;;;48.60;18.35;;;;;;;7.12;100.00;99472.25;5016898;28;20055;-61
2023/10/26 08:34:14;;;;;;;26.08;18.15;;;;;;;7.16;100.00;99476.63;5013929;28;20015;-62
2023/10/26 08:36:39;;;;;;;28.70;16.13;;;;;;;7.14;100.00;99470.56;5006319;28;20215;-62
2023/10/26 08:39:06;;;;;;;24.30;15.85;;;;;;;7.18;100.00;99474.06;5005597;28;20068;-62
2023/10/26 08:41:33;;;;;;;24.15;17.27;;;;;;;7.23;100.00;99471.63;5006372;28;20069;-61
2023/10/26 08:43:58;;;;;;;28.52;16.92;;;;;;;7.27;100.00;99471.72;5011186;28;20044;-62
2023/10/26 08:46:23;;;;;;;27.42;17.50;;;;;;;7.29;100.00;99475.22;5012675;28;20053;-62
2023/10/26 08:48:54;;;;;;;26.10;16.95;;;;;;;7.33;100.00;99473.56;5005651;28;20064;-62
2023/10/26 08:51:19;;;;;;;26.92;17.52;;;;;;;7.38;100.00;99468.53;5003352;28;20036;-61
2023/10/26 08:53:44;;;;;;;25.45;18.58;;;;;;;7.42;100.00;99468.66;5000020;28;20030;-61
2023/10/26 08:56:11;;;;;;;37.70;18.17;;;;;;;7.45;100.00;99473.88;5006112;28;20021;-62
2023/10/26 08:58:37;;;;;;;27.40;19.45;;;;;;;7.42;100.00;99468.66;5001180;28;20033;-63
2023/10/26 09:01:04;;;;;;;30.05;20.02;;;;;;;7.48;100.00;99472.19;5017472;28;20536;-61
2023/10/26 09:03:29;;;;;;;28.60;19.08;;;;;;;7.52;100.00;99461.97;4993391;28;20424;-62
2023/10/26 09:05:56;;;;;;;41.10;18.25;;;;;;;7.56;100.00;99461.22;5005689;28;20263;-62
2023/10/26 09:08:28;;;;;;;23.85;16.77;;;;;;;7.52;100.00;99459.41;5006054;28;20025;-62
2023/10/26 09:10:54;;;;;;;26.00;18.05;;;;;;;7.55;100.00;99458.59;5005653;28;20065;-61
2023/10/26 09:13:27;;;;;;;26.40;18.17;;;;;;;7.59;100.00;99455.25;5005926;28;20041;-63
2023/10/26 09:15:57;;;;;;;45.58;19.27;;;;;;;7.56;100.00;99460.34;5003248;28;20102;-61
2023/10/26 09:18:23;;;;;;;27.23;17.48;;;;;;;7.61;100.00;99461.31;5007234;28;20033;-62
2023/10/26 09:21:03;;;;;;;27.38;19.05;;;;;;;7.67;100.00;99458.88;5008988;28;20022;-61
2023/10/26 09:23:29;;;;;;;28.48;18.08;;;;;;;7.73;100.00;99454.69;5019395;28;20042;-62
2023/10/26 09:25:59;;;;;;;24.63;18.08;;;;;;;7.69;100.00;99458.91;5026834;28;20465;-61
2023/10/26 09:28:25;;;;;;;26.98;17.95;;;;;;;7.71;100.00;99458.94;5008634;28;20057;-62
2023/10/26 09:30:57;;;;;;;26.95;18.45;;;;;;;7.69;100.00;99457.22;5007145;28;20061;-62
2023/10/26 09:33:24;;;;;;;27.83;18.42;;;;;;;7.72;100.00;99456.38;5008524;28;20033;-61
2023/10/26 09:35:49;;;;;;;27.98;19.15;;;;;;;7.75;100.00;99455.59;5011864;28;20036;-61
2023/10/26 09:38:17;;;;;;;30.42;17.98;;;;;;;7.71;100.00;99449.50;5013696;28;20018;-61
2023/10/26 09:40:42;;;;;;;28.67;19.20;;;;;;;7.74;100.00;99453.84;5008691;28;20033;-62
2023/10/26 09:43:08;;;;;;;29.83;18.77;;;;;;;7.78;100.00;99451.38;5002755;28;20053;-62
2023/10/26 09:45:35;;;;;;;32.17;19.40;;;;;;;7.79;100.00;99459.97;4992459;28;20031;-62
2023/10/26 09:48:04;;;;;;;29.08;19.13;;;;;;;7.83;100.00;99456.63;4999194;28;20026;-62
2023/10/26 09:50:37;;;;;;;31.02;20.50;;;;;;;7.88;100.00;99451.56;5009388;28;20467;-62
2023/10/26 09:53:03;;;;;;;31.73;21.23;;;;;;;7.92;100.00;99451.66;5017071;28;20033;-61
2023/10/26 09:55:29;;;;;;;34.30;22.35;;;;;;;7.99;100.00;99449.19;5024228;28;20053;-61
2023/10/26 09:58:05;;;;;;;33.25;21.90;;;;;;;8.01;100.00;99450.09;5004482;28;20022;-62
2023/10/26 10:00:32;;;;;;;33.63;22.05;;;;;;;8.05;100.00;99439.00;4998999;28;20477;-61
2023/10/26 10:03:10;;;;;;;33.78;22.10;;;;;;;8.12;100.00;99440.00;5004555;28;20789;-61
2023/10/26 10:05:37;;;;;;;36.30;23.02;;;;;;;8.10;100.00;99442.53;5006727;28;20026;-62
2023/10/26 10:08:03;;;;;;;32.92;22.13;;;;;;;8.11;100.00;99439.13;5010325;28;20124;-61
2023/10/26 10:10:28;;;;;;;31.40;21.98;;;;;;;8.16;100.00;99445.25;5019801;28;20109;-62
2023/10/26 10:12:53;;;;;;;32.42;21.70;;;;;;;8.18;100.00;99434.97;5012350;28;20069;-62
2023/10/26 10:15:33;;;;;;;29.40;20.08;;;;;;;8.21;100.00;99434.13;5008074;28;20474;-62
2023/10/26 10:17:59;;;;;;;34.67;21.95;;;;;;;8.22;100.00;99435.91;5013500;28;20292;-62
2023/10/26 10:20:35;;;;;;;35.60;22.15;;;;;;;8.27;100.00;99429.94;5023234;28;20080;-62
2023/10/26 10:23:02;;;;;;;28.40;19.42;;;;;;;8.35;100.00;99412.03;5022343;28;20116;-61
2023/10/26 10:25:50;;;;;;;29.77;19.48;;;;;;;8.36;100.00;99416.38;5013539;28;20058;-62
2023/10/26 10:28:19;;;;;;;26.77;18.95;;;;;;;8.37;100.00;99412.94;4993669;28;20046;-62
2023/10/26 10:30:52;;;;;;;29.83;19.63;;;;;;;8.37;100.00;99415.53;5016045;28;20459;-61
2023/10/26 10:33:28;;;;;;;30.15;19.77;;;;;;;8.38;100.00;99412.09;4991772;28;20234;-62
2023/10/26 10:36:01;;;;;;;27.58;19.70;;;;;;;8.32;100.00;99406.81;5006242;28;20501;-62
2023/10/26 10:38:28;;;;;;;29.00;20.02;;;;;;;8.33;100.00;99408.56;5007606;28;20441;-62
2023/10/26 10:40:53;;;;;;;28.15;19.77;;;;;;;8.21;100.00;99393.72;5002543;28;20040;-62
2023/10/26 10:43:45;;;;;;;27.63;19.92;;;;;;;8.24;100.00;99396.34;5009825;28;20390;-61
2023/10/26 10:46:16;;;;;;;;;;;;;;;8.26;100.00;99394.69;5001252;28;20030;-61
2023/10/26 10:49:07;;;;;;;27.30;19.17;;;;;;;8.23;100.00;99401.50;5017920;28;19913;-61
2023/10/26 10:51:39;;;;;;;28.10;18.95;;;;;;;8.26;100.00;99396.38;5018031;28;20048;-62
2023/10/26 10:54:08;;;;;;;28.80;19.30;;;;;;;8.31;100.00;99394.75;5010164;28;20024;-61
2023/10/26 10:56:38;;;;;;;31.05;20.73;;;;;;;8.33;100.00;99393.06;5009352;28;20127;-62
2023/10/26 10:59:30;;;;;;;34.05;20.65;;;;;;;8.37;100.00;99384.53;5009715;28;20034;-61
2023/10/26 11:02:10;;;;;;;31.83;21.35;;;;;;;8.40;100.00;99376.00;4997329;28;20478;-62
2023/10/26 11:04:51;;;;;;;26.85;19.17;;;;;;;8.49;100.00;99372.72;5018528;28;20088;-61
2023/10/26 11:07:16;;;;;;;30.13;20.52;;;;;;;8.52;100.00;99373.63;5002055;28;20033;-62
2023/10/26 11:09:44;;;;;;;29.98;19.48;;;;;;;8.56;100.00;99379.75;5017640;28;20072;-61
2023/10/26 11:12:11;;;;;;;29.40;19.95;;;;;;;8.56;100.00;99384.91;4990853;28;20054;-61
2023/10/26 11:14:49;;;;;;;28.55;20.55;;;;;;;8.61;100.00;99383.28;5009546;28;20505;-61